RYR7GE EGSS-EDDH
Flight info
| Callsign | RYR7GE |
|---|---|
| Flight time | 1h 7m |
| Altitude | 37000 |
| Route | CLN P44 SOMVA DCT MAVAS DCT VALAM DCT GASTU DCT OSTOR T904 RIBSO RIBSO7A |
| Aircraft | B738/M-SDE2E3FGHIRWXY/LB1 |
Departure
| Time | 2026-05-07 18:41 |
|---|---|
| Airport | London Stansted Airport (EGSS) |
Arrival
| Time | 2026-05-07 19:49 |
|---|---|
| Airport | Hamburg Helmut Schmidt Airport (EDDH) |
| Time | Latitude | Longitude | Altitude | Speed | Heading |
|---|---|---|---|---|---|
| 2026-05-07 17:52 | 51.89178 | 0.25486 | 355 ft | 0 kts | 43° |
| 2026-05-07 18:29 | 51.89172 | 0.25478 | 358 ft | 4 kts | 42° |
| 2026-05-07 18:30 | 51.89152 | 0.25449 | 352 ft | 4 kts | 41° |
| 2026-05-07 18:30 | 51.89131 | 0.25428 | 357 ft | 4 kts | 359° |
| 2026-05-07 18:30 | 51.89109 | 0.25441 | 354 ft | 3 kts | 320° |
| 2026-05-07 18:30 | 51.89106 | 0.25445 | 358 ft | 1 kts | 320° |
| 2026-05-07 18:34 | 51.89114 | 0.25433 | 352 ft | 4 kts | 320° |
| 2026-05-07 18:34 | 51.89153 | 0.25370 | 356 ft | 9 kts | 313° |
| 2026-05-07 18:34 | 51.89174 | 0.25287 | 348 ft | 8 kts | 254° |
| 2026-05-07 18:34 | 51.89129 | 0.25206 | 348 ft | 14 kts | 223° |
| 2026-05-07 18:35 | 51.89040 | 0.25074 | 351 ft | 20 kts | 222° |
| 2026-05-07 18:35 | 51.88939 | 0.24926 | 348 ft | 19 kts | 223° |
| 2026-05-07 18:35 | 51.88845 | 0.24784 | 356 ft | 19 kts | 225° |
| 2026-05-07 18:35 | 51.88746 | 0.24633 | 348 ft | 20 kts | 224° |
| 2026-05-07 18:36 | 51.88636 | 0.24468 | 348 ft | 23 kts | 222° |
| 2026-05-07 18:36 | 51.88516 | 0.24290 | 351 ft | 25 kts | 223° |
| 2026-05-07 18:36 | 51.88383 | 0.24088 | 348 ft | 27 kts | 223° |
| 2026-05-07 18:36 | 51.88247 | 0.23884 | 348 ft | 26 kts | 223° |
| 2026-05-07 18:37 | 51.88119 | 0.23691 | 352 ft | 26 kts | 222° |
| 2026-05-07 18:37 | 51.87978 | 0.23483 | 352 ft | 29 kts | 224° |
| 2026-05-07 18:37 | 51.87852 | 0.23291 | 355 ft | 24 kts | 222° |
| 2026-05-07 18:37 | 51.87754 | 0.23146 | 356 ft | 9 kts | 223° |
| 2026-05-07 18:38 | 51.87727 | 0.23090 | 352 ft | 9 kts | 245° |
| 2026-05-07 18:38 | 51.87766 | 0.22973 | 352 ft | 10 kts | 313° |
| 2026-05-07 18:38 | 51.87799 | 0.22916 | 348 ft | 10 kts | 314° |
| 2026-05-07 18:38 | 51.87839 | 0.22850 | 342 ft | 8 kts | 317° |
| 2026-05-07 18:39 | 51.87862 | 0.22807 | 338 ft | 3 kts | 312° |
| 2026-05-07 18:39 | 51.87888 | 0.22760 | 336 ft | 7 kts | 312° |
| 2026-05-07 18:39 | 51.87921 | 0.22700 | 337 ft | 7 kts | 312° |
| 2026-05-07 18:39 | 51.87959 | 0.22672 | 337 ft | 6 kts | 23° |
| 2026-05-07 18:40 | 51.87969 | 0.22685 | 338 ft | 1 kts | 43° |
| 2026-05-07 18:40 | 51.87970 | 0.22686 | 338 ft | 0 kts | 43° |
| 2026-05-07 18:41 | 51.87990 | 0.22717 | 336 ft | 28 kts | 43° |
| 2026-05-07 18:41 | 51.88379 | 0.23299 | 335 ft | 121 kts | 42° |
| 2026-05-07 18:41 | 51.89183 | 0.24510 | 510 ft | 186 kts | 45° |
| 2026-05-07 18:41 | 51.90177 | 0.26022 | 1402 ft | 206 kts | 48° |
| 2026-05-07 18:42 | 51.91160 | 0.27685 | 2597 ft | 202 kts | 53° |
| 2026-05-07 18:42 | 51.91827 | 0.29793 | 3061 ft | 222 kts | 83° |
| 2026-05-07 18:42 | 51.91677 | 0.32309 | 3383 ft | 232 kts | 113° |
| 2026-05-07 18:42 | 51.90918 | 0.34634 | 3839 ft | 238 kts | 121° |
| 2026-05-07 18:43 | 51.90132 | 0.37039 | 3964 ft | 242 kts | 118° |
| 2026-05-07 18:43 | 51.89362 | 0.39541 | 4000 ft | 256 kts | 117° |
| 2026-05-07 18:43 | 51.88556 | 0.42190 | 4047 ft | 265 kts | 117° |
| 2026-05-07 18:43 | 51.87747 | 0.44911 | 4657 ft | 271 kts | 116° |
| 2026-05-07 18:44 | 51.86923 | 0.47692 | 5393 ft | 279 kts | 117° |
| 2026-05-07 18:44 | 51.86091 | 0.50522 | 6286 ft | 277 kts | 116° |
| 2026-05-07 18:44 | 51.85273 | 0.53311 | 7109 ft | 278 kts | 117° |
| 2026-05-07 18:44 | 51.84439 | 0.56150 | 7934 ft | 279 kts | 117° |
| 2026-05-07 18:45 | 51.83610 | 0.59010 | 8711 ft | 283 kts | 114° |
| 2026-05-07 18:45 | 51.83074 | 0.62094 | 9502 ft | 287 kts | 99° |
| 2026-05-07 18:45 | 51.82950 | 0.65348 | 10232 ft | 293 kts | 90° |
| 2026-05-07 18:45 | 51.83082 | 0.68641 | 10987 ft | 295 kts | 87° |
| 2026-05-07 18:46 | 51.83235 | 0.72038 | 11062 ft | 308 kts | 87° |
| 2026-05-07 18:46 | 51.83385 | 0.75470 | 11079 ft | 308 kts | 88° |
| 2026-05-07 18:46 | 51.83527 | 0.79017 | 11238 ft | 327 kts | 88° |
| 2026-05-07 18:46 | 51.83672 | 0.82823 | 11412 ft | 349 kts | 88° |
| 2026-05-07 18:47 | 51.83817 | 0.86835 | 11467 ft | 358 kts | 89° |
| 2026-05-07 18:47 | 51.83961 | 0.90791 | 11795 ft | 347 kts | 88° |
| 2026-05-07 18:47 | 51.84100 | 0.94658 | 12557 ft | 348 kts | 88° |
| 2026-05-07 18:47 | 51.84423 | 1.03881 | 13844 ft | 367 kts | 88° |
| 2026-05-07 18:48 | 51.85823 | 1.20584 | 16459 ft | 386 kts | 67° |
| 2026-05-07 18:48 | 51.88026 | 1.27969 | 17720 ft | 394 kts | 64° |
| 2026-05-07 18:48 | 51.89310 | 1.32147 | 18447 ft | 396 kts | 64° |
| 2026-05-07 18:48 | 51.97887 | 1.63203 | 22563 ft | 416 kts | 68° |
| 2026-05-07 18:49 | 52.02062 | 1.78659 | 23979 ft | 430 kts | 59° |
| 2026-05-07 18:49 | 52.03693 | 1.82764 | 24254 ft | 435 kts | 56° |
| 2026-05-07 18:49 | 52.05335 | 1.86910 | 24645 ft | 436 kts | 58° |
| 2026-05-07 18:49 | 52.06842 | 1.91120 | 25015 ft | 438 kts | 60° |
| 2026-05-07 18:50 | 52.08302 | 1.95474 | 25349 ft | 440 kts | 62° |
| 2026-05-07 18:50 | 52.09744 | 1.99879 | 25682 ft | 442 kts | 62° |
| 2026-05-07 18:50 | 52.11188 | 2.04304 | 26015 ft | 444 kts | 62° |
| 2026-05-07 18:50 | 52.12639 | 2.08751 | 26322 ft | 446 kts | 62° |
| 2026-05-07 18:51 | 52.14098 | 2.13218 | 26627 ft | 448 kts | 62° |
| 2026-05-07 18:51 | 52.15570 | 2.17719 | 26921 ft | 450 kts | 62° |
| 2026-05-07 18:51 | 52.17043 | 2.22229 | 27209 ft | 452 kts | 62° |
| 2026-05-07 18:51 | 52.18523 | 2.26763 | 27490 ft | 454 kts | 62° |
| 2026-05-07 18:52 | 52.20008 | 2.31321 | 27761 ft | 456 kts | 62° |
| 2026-05-07 18:52 | 52.21499 | 2.35905 | 28023 ft | 458 kts | 62° |
| 2026-05-07 18:52 | 52.22993 | 2.40508 | 28280 ft | 460 kts | 62° |
| 2026-05-07 18:52 | 52.24494 | 2.45143 | 28529 ft | 462 kts | 62° |
| 2026-05-07 18:53 | 52.25976 | 2.49727 | 28788 ft | 463 kts | 62° |
| 2026-05-07 18:53 | 52.27474 | 2.54368 | 29167 ft | 461 kts | 62° |
| 2026-05-07 18:53 | 52.28970 | 2.59012 | 29440 ft | 462 kts | 63° |
| 2026-05-07 18:53 | 52.30450 | 2.63695 | 29608 ft | 465 kts | 65° |
| 2026-05-07 18:54 | 52.31622 | 2.68630 | 29773 ft | 466 kts | 73° |
| 2026-05-07 18:54 | 52.32516 | 2.73728 | 30014 ft | 467 kts | 75° |
| 2026-05-07 18:54 | 52.33363 | 2.78846 | 30291 ft | 466 kts | 76° |
| 2026-05-07 18:54 | 52.34212 | 2.83963 | 30558 ft | 465 kts | 75° |
| 2026-05-07 18:55 | 52.35079 | 2.89064 | 30800 ft | 465 kts | 75° |
| 2026-05-07 18:55 | 52.35961 | 2.94152 | 31005 ft | 465 kts | 75° |
| 2026-05-07 18:55 | 52.36854 | 2.99252 | 31220 ft | 465 kts | 75° |
| 2026-05-07 18:55 | 52.37747 | 3.04332 | 31432 ft | 466 kts | 75° |
| 2026-05-07 18:56 | 52.38638 | 3.09428 | 31661 ft | 465 kts | 75° |
| 2026-05-07 18:56 | 52.39526 | 3.14519 | 31893 ft | 465 kts | 74° |
| 2026-05-07 18:56 | 52.40583 | 3.19462 | 32100 ft | 465 kts | 66° |
| 2026-05-07 18:56 | 52.41963 | 3.24258 | 32331 ft | 465 kts | 64° |
| 2026-05-07 18:57 | 52.43407 | 3.29003 | 32559 ft | 465 kts | 64° |
| 2026-05-07 18:57 | 52.44864 | 3.33733 | 32770 ft | 465 kts | 64° |
| 2026-05-07 18:57 | 52.46316 | 3.38476 | 32990 ft | 465 kts | 64° |
| 2026-05-07 18:57 | 52.47749 | 3.43214 | 33420 ft | 461 kts | 64° |
| 2026-05-07 18:58 | 52.49144 | 3.47882 | 34233 ft | 449 kts | 65° |
| 2026-05-07 18:58 | 52.50498 | 3.52451 | 34780 ft | 442 kts | 65° |
| 2026-05-07 18:58 | 52.51831 | 3.56983 | 35081 ft | 441 kts | 65° |
| 2026-05-07 18:59 | 52.54513 | 3.66148 | 35106 ft | 447 kts | 65° |
| 2026-05-07 18:59 | 52.57190 | 3.75333 | 35095 ft | 442 kts | 65° |
| 2026-05-07 19:00 | 52.59828 | 3.84411 | 35103 ft | 439 kts | 65° |
| 2026-05-07 19:00 | 52.62456 | 3.93485 | 35109 ft | 439 kts | 65° |
| 2026-05-07 19:00 | 52.63762 | 3.98011 | 34049 ft | 439 kts | 65° |
| 2026-05-07 19:01 | 52.65046 | 4.02465 | 35197 ft | 437 kts | 65° |
| 2026-05-07 19:01 | 52.67670 | 4.11599 | 35102 ft | 444 kts | 65° |
| 2026-05-07 19:02 | 52.70304 | 4.20803 | 35120 ft | 444 kts | 65° |
| 2026-05-07 19:02 | 52.72938 | 4.30041 | 35101 ft | 444 kts | 66° |
| 2026-05-07 19:03 | 52.75555 | 4.39254 | 35095 ft | 442 kts | 66° |
| 2026-05-07 19:03 | 52.78153 | 4.48439 | 35100 ft | 440 kts | 66° |
| 2026-05-07 19:04 | 52.80714 | 4.57529 | 35101 ft | 438 kts | 66° |
| 2026-05-07 19:04 | 52.83272 | 4.66642 | 35100 ft | 436 kts | 66° |
| 2026-05-07 19:05 | 52.85816 | 4.75742 | 35105 ft | 435 kts | 66° |
| 2026-05-07 19:05 | 52.88350 | 4.84839 | 35106 ft | 434 kts | 66° |
| 2026-05-07 19:06 | 52.90870 | 4.93924 | 35107 ft | 434 kts | 66° |
| 2026-05-07 19:06 | 52.94644 | 5.07595 | 35088 ft | 434 kts | 67° |
| 2026-05-07 19:07 | 52.97146 | 5.16705 | 35102 ft | 434 kts | 66° |
| 2026-05-07 19:07 | 52.99626 | 5.25773 | 35107 ft | 434 kts | 66° |
| 2026-05-07 19:08 | 53.02118 | 5.34912 | 35113 ft | 434 kts | 67° |
| 2026-05-07 19:08 | 53.04550 | 5.44102 | 35110 ft | 434 kts | 69° |
| 2026-05-07 19:09 | 53.06799 | 5.53432 | 35110 ft | 435 kts | 69° |
| 2026-05-07 19:09 | 53.09019 | 5.62780 | 35101 ft | 435 kts | 69° |
| 2026-05-07 19:10 | 53.11217 | 5.71982 | 35104 ft | 435 kts | 69° |
| 2026-05-07 19:10 | 53.13455 | 5.81333 | 35103 ft | 434 kts | 70° |
| 2026-05-07 19:11 | 53.15691 | 5.90686 | 35097 ft | 432 kts | 70° |
| 2026-05-07 19:11 | 53.17884 | 5.99911 | 35100 ft | 429 kts | 69° |
| 2026-05-07 19:12 | 53.20068 | 6.09133 | 35098 ft | 427 kts | 70° |
| 2026-05-07 19:12 | 53.22236 | 6.18331 | 35100 ft | 425 kts | 70° |
| 2026-05-07 19:13 | 53.24389 | 6.27505 | 35118 ft | 424 kts | 71° |
| 2026-05-07 19:13 | 53.26543 | 6.36709 | 35122 ft | 425 kts | 70° |
| 2026-05-07 19:14 | 53.28693 | 6.45944 | 35124 ft | 428 kts | 70° |
| 2026-05-07 19:14 | 53.30860 | 6.55306 | 34894 ft | 436 kts | 70° |
| 2026-05-07 19:15 | 53.31949 | 6.60018 | 34647 ft | 433 kts | 70° |
| 2026-05-07 19:15 | 53.33028 | 6.64693 | 34402 ft | 427 kts | 70° |
| 2026-05-07 19:15 | 53.34093 | 6.69316 | 34165 ft | 423 kts | 70° |
| 2026-05-07 19:15 | 53.35150 | 6.73923 | 33894 ft | 424 kts | 70° |
| 2026-05-07 19:16 | 53.36206 | 6.78538 | 33624 ft | 424 kts | 70° |
| 2026-05-07 19:16 | 53.37245 | 6.83089 | 33356 ft | 425 kts | 69° |
| 2026-05-07 19:16 | 53.38302 | 6.87731 | 33086 ft | 426 kts | 70° |
| 2026-05-07 19:16 | 53.39359 | 6.92375 | 32816 ft | 428 kts | 70° |
| 2026-05-07 19:17 | 53.40418 | 6.97044 | 32563 ft | 429 kts | 71° |
| 2026-05-07 19:17 | 53.41480 | 7.01738 | 32296 ft | 431 kts | 69° |
| 2026-05-07 19:17 | 53.42541 | 7.06441 | 32036 ft | 432 kts | 69° |
| 2026-05-07 19:17 | 53.43605 | 7.11160 | 31777 ft | 434 kts | 71° |
| 2026-05-07 19:18 | 53.44673 | 7.15904 | 31527 ft | 434 kts | 70° |
| 2026-05-07 19:18 | 53.45736 | 7.20646 | 31280 ft | 435 kts | 70° |
| 2026-05-07 19:18 | 53.46805 | 7.25417 | 31024 ft | 436 kts | 70° |
| 2026-05-07 19:18 | 53.47872 | 7.30188 | 30779 ft | 437 kts | 70° |
| 2026-05-07 19:19 | 53.48939 | 7.34971 | 30536 ft | 438 kts | 70° |
| 2026-05-07 19:19 | 53.50012 | 7.39796 | 29930 ft | 446 kts | 70° |
| 2026-05-07 19:19 | 53.51100 | 7.44699 | 29244 ft | 447 kts | 70° |
| 2026-05-07 19:19 | 53.52180 | 7.49578 | 28567 ft | 442 kts | 70° |
| 2026-05-07 19:20 | 53.53245 | 7.54400 | 27956 ft | 437 kts | 70° |
| 2026-05-07 19:20 | 53.54295 | 7.59164 | 27358 ft | 432 kts | 70° |
| 2026-05-07 19:20 | 53.54985 | 7.62300 | 26977 ft | 429 kts | 70° |
| 2026-05-07 19:20 | 53.56358 | 7.68562 | 26245 ft | 437 kts | 70° |
| 2026-05-07 19:21 | 53.57069 | 7.71809 | 25932 ft | 437 kts | 70° |
| 2026-05-07 19:21 | 53.58103 | 7.76541 | 25696 ft | 424 kts | 70° |
| 2026-05-07 19:21 | 53.59418 | 7.82577 | 25339 ft | 407 kts | 70° |
| 2026-05-07 19:21 | 53.60379 | 7.87000 | 25093 ft | 397 kts | 70° |
| 2026-05-07 19:22 | 53.61016 | 7.89935 | 24905 ft | 392 kts | 70° |
| 2026-05-07 19:22 | 53.61936 | 7.94177 | 24684 ft | 387 kts | 70° |
| 2026-05-07 19:22 | 53.62854 | 7.98424 | 24439 ft | 385 kts | 70° |
| 2026-05-07 19:22 | 53.63752 | 8.02655 | 24198 ft | 383 kts | 71° |
| 2026-05-07 19:23 | 53.64593 | 8.06939 | 23935 ft | 384 kts | 72° |
| 2026-05-07 19:23 | 53.65406 | 8.11234 | 23539 ft | 386 kts | 72° |
| 2026-05-07 19:23 | 53.66213 | 8.15545 | 23058 ft | 384 kts | 72° |
| 2026-05-07 19:23 | 53.67014 | 8.19815 | 22644 ft | 380 kts | 72° |
| 2026-05-07 19:24 | 53.67810 | 8.24051 | 22209 ft | 377 kts | 72° |
| 2026-05-07 19:24 | 53.68597 | 8.28226 | 21794 ft | 375 kts | 72° |
| 2026-05-07 19:24 | 53.69386 | 8.32410 | 21368 ft | 374 kts | 72° |
| 2026-05-07 19:24 | 53.70174 | 8.36586 | 20948 ft | 373 kts | 72° |
| 2026-05-07 19:25 | 53.70958 | 8.40750 | 20537 ft | 372 kts | 72° |
| 2026-05-07 19:25 | 53.71739 | 8.44904 | 20117 ft | 370 kts | 72° |
| 2026-05-07 19:25 | 53.72516 | 8.49048 | 19713 ft | 368 kts | 72° |
| 2026-05-07 19:25 | 53.73284 | 8.53146 | 19298 ft | 365 kts | 72° |
| 2026-05-07 19:26 | 53.74046 | 8.57226 | 18887 ft | 362 kts | 72° |
| 2026-05-07 19:26 | 53.74800 | 8.61272 | 18481 ft | 360 kts | 72° |
| 2026-05-07 19:26 | 53.75549 | 8.65298 | 18033 ft | 358 kts | 72° |
| 2026-05-07 19:26 | 53.76291 | 8.69301 | 17600 ft | 356 kts | 72° |
| 2026-05-07 19:27 | 53.77028 | 8.73281 | 17173 ft | 353 kts | 72° |
| 2026-05-07 19:27 | 53.77756 | 8.77217 | 16776 ft | 350 kts | 72° |
| 2026-05-07 19:27 | 53.78468 | 8.81079 | 16381 ft | 347 kts | 72° |
| 2026-05-07 19:27 | 53.79190 | 8.85006 | 15985 ft | 344 kts | 72° |
| 2026-05-07 19:28 | 53.79898 | 8.88858 | 15602 ft | 342 kts | 72° |
| 2026-05-07 19:28 | 53.80591 | 8.92637 | 15206 ft | 339 kts | 72° |
| 2026-05-07 19:28 | 53.81286 | 8.96437 | 14833 ft | 335 kts | 72° |
| 2026-05-07 19:28 | 53.81964 | 9.00151 | 14444 ft | 326 kts | 73° |
| 2026-05-07 19:29 | 53.82599 | 9.03799 | 14083 ft | 317 kts | 78° |
| 2026-05-07 19:29 | 53.82819 | 9.07493 | 13716 ft | 316 kts | 92° |
| 2026-05-07 19:29 | 53.82638 | 9.11193 | 13340 ft | 314 kts | 96° |
| 2026-05-07 19:29 | 53.82411 | 9.14862 | 12962 ft | 313 kts | 96° |
| 2026-05-07 19:30 | 53.82185 | 9.18519 | 12598 ft | 311 kts | 96° |
| 2026-05-07 19:30 | 53.81975 | 9.22102 | 12245 ft | 309 kts | 96° |
| 2026-05-07 19:30 | 53.81769 | 9.25714 | 11889 ft | 308 kts | 95° |
| 2026-05-07 19:30 | 53.81565 | 9.29314 | 11538 ft | 306 kts | 96° |
| 2026-05-07 19:31 | 53.81333 | 9.32886 | 11193 ft | 304 kts | 102° |
| 2026-05-07 19:31 | 53.80533 | 9.36090 | 11141 ft | 291 kts | 123° |
| 2026-05-07 19:31 | 53.79433 | 9.38843 | 11108 ft | 272 kts | 124° |
| 2026-05-07 19:31 | 53.78395 | 9.41397 | 11103 ft | 258 kts | 124° |
| 2026-05-07 19:32 | 53.77381 | 9.43907 | 11121 ft | 258 kts | 124° |
| 2026-05-07 19:32 | 53.76216 | 9.46193 | 10924 ft | 261 kts | 144° |
| 2026-05-07 19:32 | 53.74505 | 9.47253 | 10443 ft | 265 kts | 177° |
| 2026-05-07 19:32 | 53.72726 | 9.46677 | 10094 ft | 261 kts | 205° |
| 2026-05-07 19:33 | 53.71176 | 9.45114 | 9723 ft | 257 kts | 213° |
| 2026-05-07 19:33 | 53.69613 | 9.43751 | 9400 ft | 252 kts | 189° |
| 2026-05-07 19:33 | 53.67889 | 9.43818 | 9253 ft | 248 kts | 168° |
| 2026-05-07 19:33 | 53.66237 | 9.44423 | 9066 ft | 250 kts | 165° |
| 2026-05-07 19:34 | 53.64546 | 9.45127 | 8891 ft | 250 kts | 165° |
| 2026-05-07 19:34 | 53.62857 | 9.45831 | 8706 ft | 250 kts | 165° |
| 2026-05-07 19:34 | 53.61194 | 9.46517 | 8537 ft | 249 kts | 165° |
| 2026-05-07 19:34 | 53.59512 | 9.47199 | 8369 ft | 248 kts | 166° |
| 2026-05-07 19:35 | 53.57833 | 9.47872 | 8204 ft | 247 kts | 166° |
| 2026-05-07 19:35 | 53.56156 | 9.48538 | 8047 ft | 247 kts | 166° |
| 2026-05-07 19:35 | 53.54492 | 9.49196 | 7999 ft | 245 kts | 166° |
| 2026-05-07 19:35 | 53.52839 | 9.49848 | 7988 ft | 243 kts | 166° |
| 2026-05-07 19:36 | 53.51178 | 9.50398 | 7985 ft | 245 kts | 178° |
| 2026-05-07 19:36 | 53.49545 | 9.49663 | 7988 ft | 245 kts | 214° |
| 2026-05-07 19:36 | 53.48335 | 9.47735 | 7991 ft | 236 kts | 229° |
| 2026-05-07 19:36 | 53.47306 | 9.45678 | 7969 ft | 230 kts | 230° |
| 2026-05-07 19:37 | 53.46282 | 9.43596 | 7732 ft | 232 kts | 230° |
| 2026-05-07 19:37 | 53.45253 | 9.41515 | 7503 ft | 229 kts | 230° |
| 2026-05-07 19:37 | 53.44238 | 9.39479 | 7267 ft | 226 kts | 230° |
| 2026-05-07 19:37 | 53.43200 | 9.37521 | 7000 ft | 225 kts | 219° |
| 2026-05-07 19:38 | 53.41781 | 9.36386 | 6436 ft | 232 kts | 186° |
| 2026-05-07 19:38 | 53.40186 | 9.36730 | 5824 ft | 235 kts | 153° |
| 2026-05-07 19:38 | 53.38920 | 9.38410 | 5349 ft | 231 kts | 121° |
| 2026-05-07 19:38 | 53.38461 | 9.40835 | 5251 ft | 213 kts | 88° |
| 2026-05-07 19:39 | 53.38720 | 9.43218 | 5026 ft | 206 kts | 75° |
| 2026-05-07 19:39 | 53.39116 | 9.45522 | 4797 ft | 205 kts | 74° |
| 2026-05-07 19:39 | 53.39523 | 9.47799 | 4556 ft | 203 kts | 74° |
| 2026-05-07 19:39 | 53.39925 | 9.50017 | 4356 ft | 198 kts | 74° |
| 2026-05-07 19:40 | 53.40332 | 9.52216 | 4140 ft | 191 kts | 71° |
| 2026-05-07 19:40 | 53.41021 | 9.54004 | 4018 ft | 181 kts | 49° |
| 2026-05-07 19:40 | 53.41811 | 9.55543 | 3986 ft | 171 kts | 53° |
| 2026-05-07 19:40 | 53.42538 | 9.57074 | 3969 ft | 164 kts | 53° |
| 2026-05-07 19:41 | 53.43237 | 9.58531 | 3957 ft | 158 kts | 53° |
| 2026-05-07 19:41 | 53.43930 | 9.59962 | 3988 ft | 160 kts | 53° |
| 2026-05-07 19:41 | 53.44640 | 9.61420 | 4005 ft | 162 kts | 53° |
| 2026-05-07 19:41 | 53.45358 | 9.62890 | 3997 ft | 159 kts | 53° |
| 2026-05-07 19:42 | 53.46044 | 9.64287 | 3983 ft | 152 kts | 53° |
| 2026-05-07 19:42 | 53.46707 | 9.65640 | 3990 ft | 150 kts | 53° |
| 2026-05-07 19:42 | 53.47368 | 9.66988 | 3994 ft | 150 kts | 53° |
| 2026-05-07 19:42 | 53.48024 | 9.68327 | 4005 ft | 150 kts | 53° |
| 2026-05-07 19:43 | 53.48689 | 9.69682 | 4010 ft | 151 kts | 53° |
| 2026-05-07 19:43 | 53.49355 | 9.71039 | 3989 ft | 153 kts | 53° |
| 2026-05-07 19:43 | 53.50042 | 9.72438 | 3788 ft | 154 kts | 53° |
| 2026-05-07 19:43 | 53.50716 | 9.73807 | 3573 ft | 148 kts | 53° |
| 2026-05-07 19:44 | 53.51369 | 9.75136 | 3378 ft | 148 kts | 53° |
| 2026-05-07 19:44 | 53.52030 | 9.76483 | 3181 ft | 149 kts | 53° |
| 2026-05-07 19:44 | 53.52694 | 9.77834 | 2975 ft | 149 kts | 53° |
| 2026-05-07 19:44 | 53.53353 | 9.79174 | 2770 ft | 148 kts | 53° |
| 2026-05-07 19:45 | 53.54009 | 9.80507 | 2568 ft | 148 kts | 53° |
| 2026-05-07 19:45 | 53.54662 | 9.81833 | 2372 ft | 147 kts | 53° |
| 2026-05-07 19:45 | 53.55307 | 9.83143 | 2196 ft | 144 kts | 53° |
| 2026-05-07 19:45 | 53.55955 | 9.84461 | 1973 ft | 146 kts | 53° |
| 2026-05-07 19:46 | 53.56591 | 9.85752 | 1796 ft | 138 kts | 53° |
| 2026-05-07 19:46 | 53.57185 | 9.86958 | 1586 ft | 133 kts | 53° |
| 2026-05-07 19:46 | 53.57776 | 9.88159 | 1399 ft | 133 kts | 53° |
| 2026-05-07 19:46 | 53.58373 | 9.89371 | 1220 ft | 133 kts | 52° |
| 2026-05-07 19:47 | 53.58960 | 9.90559 | 1032 ft | 129 kts | 52° |
| 2026-05-07 19:47 | 53.59527 | 9.91711 | 839 ft | 127 kts | 52° |
| 2026-05-07 19:47 | 53.60097 | 9.92866 | 688 ft | 130 kts | 51° |
| 2026-05-07 19:47 | 53.60679 | 9.94047 | 513 ft | 132 kts | 51° |
| 2026-05-07 19:48 | 53.61266 | 9.95226 | 315 ft | 129 kts | 51° |
| 2026-05-07 19:48 | 53.61833 | 9.96383 | 122 ft | 129 kts | 50° |
| 2026-05-07 19:48 | 53.62391 | 9.97516 | 40 ft | 116 kts | 50° |
| 2026-05-07 19:48 | 53.62845 | 9.98428 | 43 ft | 85 kts | 50° |
| 2026-05-07 19:49 | 53.63147 | 9.99043 | 45 ft | 51 kts | 50° |
| 2026-05-07 19:49 | 53.63266 | 9.99296 | 46 ft | 21 kts | 64° |
| 2026-05-07 19:49 | 53.63291 | 9.99459 | 46 ft | 11 kts | 85° |
| 2026-05-07 19:49 | 53.63286 | 9.99574 | 47 ft | 7 kts | 99° |
| 2026-05-07 19:50 | 53.63281 | 9.99612 | 47 ft | 1 kts | 101° |
| 2026-05-07 19:50 | 53.63281 | 9.99614 | 47 ft | 0 kts | 101° |
| 2026-05-07 19:51 | 53.63280 | 9.99627 | 47 ft | 3 kts | 101° |
| 2026-05-07 19:51 | 53.63271 | 9.99674 | 47 ft | 6 kts | 120° |
| 2026-05-07 19:51 | 53.63240 | 9.99746 | 47 ft | 9 kts | 138° |
| 2026-05-07 19:52 | 53.63169 | 9.99809 | 45 ft | 14 kts | 154° |
| 2026-05-07 19:52 | 53.63071 | 9.99894 | 47 ft | 17 kts | 153° |
| 2026-05-07 19:52 | 53.62979 | 9.99972 | 47 ft | 12 kts | 153° |
| 2026-05-07 19:52 | 53.62912 | 10.00031 | 47 ft | 5 kts | 155° |
| 2026-05-07 19:53 | 53.62863 | 10.00056 | 47 ft | 10 kts | 152° |
| 2026-05-07 19:53 | 53.62792 | 10.00117 | 47 ft | 12 kts | 153° |
| 2026-05-07 19:53 | 53.62714 | 10.00185 | 46 ft | 14 kts | 152° |
| 2026-05-07 19:53 | 53.62640 | 10.00249 | 47 ft | 8 kts | 153° |
| 2026-05-07 19:54 | 53.62620 | 10.00294 | 47 ft | 4 kts | 77° |
| 2026-05-07 19:54 | 53.62629 | 10.00312 | 47 ft | 2 kts | 52° |
| 2026-05-07 19:54 | 53.62640 | 10.00341 | 47 ft | 4 kts | 61° |
| 2026-05-07 19:54 | 53.62648 | 10.00365 | 47 ft | 2 kts | 61° |
| 2026-05-07 19:55 | 53.62652 | 10.00376 | 47 ft | 1 kts | 62° |
| 2026-05-07 19:55 | 53.62653 | 10.00380 | 47 ft | 0 kts | 62° |